createdAt,value
2022-11-25T00:01:40.955Z,99951.88
2022-11-25T00:04:11.349Z,99961.34
2022-11-25T00:06:39.660Z,99957.91
2022-11-25T00:09:11.653Z,99958.75
2022-11-25T00:11:41.341Z,99963.91
2022-11-25T00:14:13.833Z,99957.88
2022-11-25T00:16:46.728Z,99957.88
2022-11-25T00:19:18.521Z,99957.03
2022-11-25T00:21:46.924Z,99961.28
2022-11-25T00:24:17.119Z,99963.03
2022-11-25T00:26:46.050Z,99964.72
2022-11-25T00:29:15.135Z,99964.72
2022-11-25T00:31:44.031Z,99961.28
2022-11-25T00:34:14.586Z,99961.28
2022-11-25T00:36:44.562Z,99970.72
2022-11-25T00:39:15.004Z,99965.56
2022-11-25T00:42:02.019Z,99967.31
2022-11-25T00:44:37.839Z,99963.84
2022-11-25T00:47:09.635Z,99964.72
2022-11-25T00:49:38.780Z,99962.16
2022-11-25T00:52:09.395Z,99963.84
2022-11-25T00:54:38.631Z,99962.97
2022-11-25T00:57:07.399Z,99963.84
2022-11-25T00:59:35.765Z,99963.84
2022-11-25T01:02:04.832Z,99969.00
2022-11-25T01:04:34.304Z,99963.84
2022-11-25T01:07:03.379Z,99965.56
2022-11-25T01:09:33.405Z,99967.31
2022-11-25T01:12:01.772Z,99974.16
2022-11-25T01:14:36.635Z,99976.75
2022-11-25T01:17:06.092Z,99975.88
2022-11-25T01:19:35.450Z,99972.41
2022-11-25T01:22:03.877Z,99964.69
2022-11-25T01:24:33.915Z,99971.53
2022-11-25T01:27:02.728Z,99978.44
2022-11-25T01:29:31.768Z,99975.88
2022-11-25T01:32:00.332Z,99976.75
2022-11-25T01:34:32.097Z,99974.16
2022-11-25T01:37:00.759Z,99977.63
2022-11-25T01:39:32.952Z,99990.47
2022-11-25T01:42:04.515Z,99988.75
2022-11-25T01:44:34.833Z,99979.31
2022-11-25T01:47:12.246Z,99976.75
2022-11-25T01:49:44.435Z,99987.06
2022-11-25T01:52:19.383Z,99981.91
2022-11-25T01:54:55.624Z,99990.50
2022-11-25T01:57:29.795Z,99989.63
2022-11-25T02:00:04.070Z,99989.59
2022-11-25T02:02:33.878Z,99990.47
2022-11-25T02:05:07.844Z,99987.88
2022-11-25T02:07:37.969Z,99987.88
2022-11-25T02:10:11.727Z,99994.75
2022-11-25T02:12:48.156Z,99993.03
2022-11-25T02:15:17.492Z,99993.88
2022-11-25T02:17:46.477Z,99994.75
2022-11-25T02:20:18.413Z,99993.03
2022-11-25T02:22:55.663Z,99999.06
2022-11-25T02:25:28.080Z,99998.19
2022-11-25T02:28:03.019Z,99993.88
2022-11-25T02:30:31.543Z,100002.47
2022-11-25T02:33:01.947Z,100003.34
2022-11-25T02:35:34.039Z,100005.94
2022-11-25T02:38:09.123Z,100010.22
2022-11-25T02:40:45.289Z,100011.94
2022-11-25T02:43:13.848Z,100011.94
2022-11-25T02:45:57.753Z,100010.22
2022-11-25T02:48:46.127Z,100010.22
2022-11-25T02:51:17.652Z,100014.50
2022-11-25T02:53:46.654Z,100016.22
2022-11-25T02:56:18.071Z,100018.78
2022-11-25T02:58:46.756Z,100011.91
2022-11-25T03:01:15.679Z,100012.75
2022-11-25T03:03:44.371Z,100011.06
2022-11-25T03:06:12.884Z,100017.03
2022-11-25T03:08:41.778Z,100022.22
2022-11-25T03:11:13.614Z,100023.94
2022-11-25T03:13:43.904Z,100022.19
2022-11-25T03:16:12.467Z,100022.19
2022-11-25T03:18:40.909Z,100028.22
2022-11-25T03:21:09.482Z,100025.66
2022-11-25T03:23:38.458Z,100034.25
2022-11-25T03:26:07.893Z,100029.94
2022-11-25T03:28:36.916Z,100025.66
2022-11-25T03:31:11.788Z,100024.81
2022-11-25T03:33:40.583Z,100029.09
2022-11-25T03:36:09.390Z,100029.94
2022-11-25T03:38:38.099Z,100034.25
2022-11-25T03:41:07.299Z,100041.97
2022-11-25T03:43:36.001Z,100037.66
2022-11-25T03:46:06.668Z,100037.66
2022-11-25T03:48:35.719Z,100035.94
2022-11-25T03:51:04.400Z,100039.38
2022-11-25T03:53:32.935Z,100042.84
2022-11-25T03:56:03.963Z,100042.81
2022-11-25T03:58:32.852Z,100042.81
2022-11-25T04:01:03.609Z,100044.53
2022-11-25T04:03:33.917Z,100042.78
2022-11-25T04:06:02.624Z,100046.25
2022-11-25T04:08:32.179Z,100048.81
2022-11-25T04:11:01.027Z,100053.09
2022-11-25T04:13:32.575Z,100046.25
2022-11-25T04:16:01.151Z,100041.94
2022-11-25T04:18:29.576Z,100043.66
2022-11-25T04:21:04.207Z,100046.25
2022-11-25T04:23:33.476Z,100046.25
2022-11-25T04:26:05.845Z,100045.41
2022-11-25T04:28:39.198Z,100049.69
2022-11-25T04:31:08.435Z,100053.97
2022-11-25T04:33:40.005Z,100060.00
2022-11-25T04:36:12.887Z,100049.69
2022-11-25T04:38:41.774Z,100059.13
2022-11-25T04:41:10.477Z,100060.88
2022-11-25T04:43:44.075Z,100056.56
2022-11-25T04:46:18.195Z,100061.72
2022-11-25T04:48:52.427Z,100065.16
2022-11-25T04:51:24.609Z,100070.28
2022-11-25T04:53:59.300Z,100066.84
2022-11-25T04:56:28.186Z,100073.75
2022-11-25T04:59:14.993Z,100068.59
2022-11-25T05:01:47.639Z,100073.75
2022-11-25T05:04:26.271Z,100073.75
2022-11-25T05:06:57.750Z,100073.75
2022-11-25T05:09:27.759Z,100081.44
2022-11-25T05:12:14.623Z,100083.19
2022-11-25T05:14:43.479Z,100084.03
2022-11-25T05:17:15.406Z,100088.34
2022-11-25T05:19:44.324Z,100083.19
2022-11-25T05:22:18.001Z,100091.78
2022-11-25T05:24:48.163Z,100088.34
2022-11-25T05:27:17.370Z,100095.22
2022-11-25T05:29:50.152Z,100092.63
2022-11-25T05:32:23.381Z,100100.38
2022-11-25T05:34:51.922Z,100096.09
2022-11-25T05:37:24.517Z,100101.25
2022-11-25T05:40:01.845Z,100103.81
2022-11-25T05:42:36.562Z,100109.81
2022-11-25T05:45:08.381Z,100114.09
2022-11-25T05:47:37.922Z,100111.56
2022-11-25T05:50:09.488Z,100113.28
2022-11-25T05:52:40.325Z,100121.88
2022-11-25T05:55:09.931Z,100117.56
2022-11-25T05:57:39.151Z,100123.59
2022-11-25T06:00:11.826Z,100127.03
2022-11-25T06:02:53.242Z,100123.59
2022-11-25T06:05:23.769Z,100116.72
2022-11-25T06:07:54.777Z,100124.47
2022-11-25T06:10:24.856Z,100126.16
2022-11-25T06:12:54.605Z,100129.63
2022-11-25T06:15:23.294Z,100135.63
2022-11-25T06:17:54.587Z,100127.91
2022-11-25T06:20:27.288Z,100137.34
2022-11-25T06:22:59.213Z,100127.03
2022-11-25T06:25:34.686Z,100134.78
2022-11-25T06:28:12.868Z,100130.50
2022-11-25T06:30:46.450Z,100143.38
2022-11-25T06:33:21.935Z,100143.34
2022-11-25T06:35:51.502Z,100136.44
2022-11-25T06:38:21.781Z,100144.16
2022-11-25T06:40:54.148Z,100145.88
2022-11-25T06:43:24.855Z,100151.06
2022-11-25T06:45:53.533Z,100153.63
2022-11-25T06:48:22.574Z,100149.34
2022-11-25T06:50:59.009Z,100161.34
2022-11-25T06:53:30.764Z,100163.03
2022-11-25T06:56:08.163Z,100164.72
2022-11-25T06:58:37.508Z,100162.16
2022-11-25T07:01:07.824Z,100164.69
2022-11-25T07:03:37.175Z,100173.31
2022-11-25T07:06:06.132Z,100163.84
2022-11-25T07:08:35.732Z,100174.16
2022-11-25T07:11:06.184Z,100172.44
2022-11-25T07:13:34.921Z,100166.41
2022-11-25T07:16:04.755Z,100166.41
2022-11-25T07:18:36.094Z,100169.84
2022-11-25T07:21:07.404Z,100168.97
2022-11-25T07:23:39.085Z,100168.97
2022-11-25T07:26:09.836Z,100170.69
2022-11-25T07:28:39.583Z,100161.22
2022-11-25T07:31:28.615Z,100179.31
2022-11-25T07:34:00.788Z,100181.03
2022-11-25T07:36:30.543Z,100183.63
2022-11-25T07:39:04.448Z,100178.47
2022-11-25T07:41:33.165Z,100185.34
2022-11-25T07:44:03.266Z,100185.34
2022-11-25T07:46:36.244Z,100188.75
2022-11-25T07:49:07.875Z,100186.19
2022-11-25T07:51:39.297Z,100192.16
2022-11-25T07:54:13.906Z,100199.09
2022-11-25T07:56:55.399Z,100189.59
2022-11-25T07:59:27.848Z,100193.03
2022-11-25T08:02:09.815Z,100198.22
2022-11-25T08:04:40.129Z,100202.50
2022-11-25T08:07:09.052Z,100202.47
2022-11-25T08:09:39.629Z,100205.91
2022-11-25T08:12:08.486Z,100211.06
2022-11-25T08:14:37.602Z,100212.75
2022-11-25T08:17:06.278Z,100212.75
2022-11-25T08:19:36.187Z,100211.88
2022-11-25T08:22:15.630Z,100215.28
2022-11-25T08:24:57.253Z,100222.16
2022-11-25T08:27:38.096Z,100216.09
2022-11-25T08:30:22.140Z,100219.53
2022-11-25T08:33:13.577Z,100208.31
2022-11-25T08:36:01.089Z,100212.59
2022-11-25T08:38:52.763Z,100219.41
2022-11-25T08:41:38.090Z,100224.56
2022-11-25T08:44:17.487Z,100229.69
2022-11-25T08:46:55.339Z,100232.28
2022-11-25T08:49:40.942Z,100228.88
2022-11-25T08:52:21.474Z,100232.28
2022-11-25T08:54:53.138Z,100233.16
2022-11-25T08:57:23.368Z,100233.97
2022-11-25T08:59:51.976Z,100237.34
2022-11-25T09:02:21.016Z,100234.72
2022-11-25T09:04:50.189Z,100224.25
2022-11-25T09:07:19.515Z,100217.28
2022-11-25T09:09:48.409Z,100229.34
2022-11-25T09:12:17.354Z,100230.22
2022-11-25T09:14:47.438Z,100227.66
2022-11-25T09:17:16.714Z,100233.72
2022-11-25T09:19:45.707Z,100229.44
2022-11-25T09:22:14.515Z,100236.31
2022-11-25T09:24:45.445Z,100238.00
2022-11-25T09:27:15.127Z,100236.28
2022-11-25T09:29:45.996Z,100240.59
2022-11-25T09:32:16.210Z,100232.81
2022-11-25T09:34:45.203Z,100229.38
2022-11-25T09:37:14.182Z,100232.81
2022-11-25T09:39:44.127Z,100231.94
2022-11-25T09:42:48.121Z,100236.22
2022-11-25T09:45:40.908Z,100232.66
2022-11-25T09:48:29.441Z,100236.97
2022-11-25T09:51:07.357Z,100239.47
2022-11-25T09:53:45.736Z,100235.16
2022-11-25T09:56:26.678Z,100236.88
2022-11-25T09:59:00.960Z,100240.28
2022-11-25T10:01:32.334Z,100241.97
2022-11-25T10:04:09.284Z,100248.03
2022-11-25T10:06:49.472Z,100252.41
2022-11-25T10:09:26.086Z,100248.19
2022-11-25T10:11:58.186Z,100258.53
2022-11-25T10:14:33.754Z,100261.19
2022-11-25T10:17:12.941Z,100256.91
2022-11-25T10:19:52.837Z,100254.28
2022-11-25T10:22:26.161Z,100255.13
2022-11-25T10:25:00.548Z,100260.22
2022-11-25T10:27:39.951Z,100253.28
2022-11-25T10:30:19.860Z,100254.09
2022-11-25T10:32:59.215Z,100253.28
2022-11-25T10:35:38.002Z,100260.16
2022-11-25T10:38:21.477Z,100256.69
2022-11-25T10:40:53.900Z,100253.28
2022-11-25T10:43:27.301Z,100260.19
2022-11-25T10:46:12.322Z,100255.81
2022-11-25T10:48:54.804Z,100266.97
2022-11-25T10:51:38.780Z,100264.44
2022-11-25T10:54:15.515Z,100264.47
2022-11-25T10:56:48.630Z,100272.28
2022-11-25T10:59:25.882Z,100260.25
2022-11-25T11:02:07.411Z,100263.63
2022-11-25T11:04:38.163Z,100261.03
2022-11-25T11:07:11.306Z,100258.41
2022-11-25T11:09:42.129Z,100259.28
2022-11-25T11:12:22.559Z,100261.78
2022-11-25T11:14:52.669Z,100258.22
2022-11-25T11:17:36.841Z,100264.19
2022-11-25T11:20:25.536Z,100270.22
2022-11-25T11:23:09.086Z,100265.06
2022-11-25T11:25:56.477Z,100265.19
2022-11-25T11:28:33.413Z,100266.88
2022-11-25T11:31:19.097Z,100267.75
2022-11-25T11:34:04.876Z,100272.88
2022-11-25T11:36:53.434Z,100273.81
2022-11-25T11:42:33.434Z,100269.53
2022-11-25T11:45:14.009Z,100272.13
2022-11-25T11:47:55.990Z,100266.97
2022-11-25T11:50:27.071Z,100268.75
2022-11-25T11:53:06.314Z,100278.22
2022-11-25T11:56:00.307Z,100268.72
2022-11-25T11:58:58.894Z,100270.44
2022-11-25T12:01:40.352Z,100277.34
2022-11-25T12:04:19.186Z,100272.16
2022-11-25T12:07:07.931Z,100272.16
2022-11-25T12:09:49.287Z,100277.31
2022-11-25T12:12:23.031Z,100275.63
2022-11-25T12:15:03.312Z,100273.94
2022-11-25T12:17:48.329Z,100283.44
2022-11-25T12:20:23.834Z,100278.28
2022-11-25T12:23:02.335Z,100279.16
2022-11-25T12:25:36.194Z,100280.03
2022-11-25T12:28:09.335Z,100286.94
2022-11-25T12:30:46.294Z,100293.00
2022-11-25T12:33:21.831Z,100299.03
2022-11-25T12:36:01.132Z,100292.13
2022-11-25T12:38:40.995Z,100293.00
2022-11-25T12:41:24.718Z,100289.59
2022-11-25T12:44:02.735Z,100286.13
2022-11-25T12:46:38.427Z,100285.31
2022-11-25T12:49:17.182Z,100287.91
2022-11-25T12:52:32.604Z,100290.53
2022-11-25T12:55:15.770Z,100296.56
2022-11-25T12:58:23.048Z,100293.97
2022-11-25T13:01:33.048Z,100296.59
2022-11-25T13:04:29.946Z,100295.78
2022-11-25T13:07:23.974Z,100297.47
2022-11-25T13:10:20.560Z,100291.50
2022-11-25T13:13:06.179Z,100288.91
2022-11-25T13:15:41.493Z,100294.09
2022-11-25T13:18:18.111Z,100296.72
2022-11-25T13:20:52.152Z,100295.03
2022-11-25T13:23:29.749Z,100302.78
2022-11-25T13:26:37.113Z,100295.91
2022-11-25T13:29:44.720Z,100305.38
2022-11-25T13:32:44.650Z,100293.31
2022-11-25T13:35:52.031Z,100299.38
2022-11-25T13:39:05.872Z,100301.97
2022-11-25T13:41:46.429Z,100301.13
2022-11-25T13:44:24.162Z,100302.88
2022-11-25T13:46:54.888Z,100308.88
2022-11-25T13:49:44.303Z,100309.75
2022-11-25T13:52:33.345Z,100310.59
2022-11-25T13:55:22.441Z,100314.06
2022-11-25T13:58:18.087Z,100316.66
2022-11-25T14:01:06.998Z,100320.97
2022-11-25T14:04:00.467Z,100327.88
2022-11-25T14:07:04.227Z,100323.56
2022-11-25T14:09:46.435Z,100328.75
2022-11-25T14:12:58.009Z,100326.16
2022-11-25T14:16:06.907Z,100327.88
2022-11-25T14:22:01.734Z,100329.66
2022-11-25T14:24:37.237Z,100328.78
2022-11-25T14:27:14.543Z,100333.97
2022-11-25T14:29:50.520Z,100334.81
2022-11-25T14:32:26.468Z,100329.66
2022-11-25T14:35:04.928Z,100340.00
2022-11-25T14:37:41.045Z,100333.16
2022-11-25T14:40:20.117Z,100328.84
2022-11-25T14:42:53.856Z,100338.31
2022-11-25T14:45:27.282Z,100346.09
2022-11-25T14:47:58.131Z,100341.78
2022-11-25T14:50:35.260Z,100342.66
2022-11-25T14:53:08.912Z,100342.66
2022-11-25T14:55:39.790Z,100343.53
2022-11-25T14:58:13.960Z,100349.56
2022-11-25T15:01:02.252Z,100351.28
2022-11-25T15:03:31.168Z,100352.16
2022-11-25T15:06:08.000Z,100348.69
2022-11-25T15:08:41.478Z,100349.56
2022-11-25T15:11:15.850Z,100355.56
2022-11-25T15:13:46.263Z,100351.28
2022-11-25T15:16:20.365Z,100347.88
2022-11-25T15:18:52.092Z,100349.56
2022-11-25T15:21:24.303Z,100353.88
2022-11-25T15:23:53.273Z,100349.56
2022-11-25T15:26:27.178Z,100348.72
2022-11-25T15:28:57.311Z,100353.03
2022-11-25T15:31:31.921Z,100350.44
2022-11-25T15:34:03.592Z,100352.19
2022-11-25T15:36:32.612Z,100351.31
2022-11-25T15:39:16.137Z,100342.72
2022-11-25T15:41:47.155Z,100349.59
2022-11-25T15:44:23.087Z,100351.31
2022-11-25T15:47:01.749Z,100345.31
2022-11-25T15:49:31.133Z,100346.19
2022-11-25T15:52:05.056Z,100341.00
2022-11-25T15:54:42.695Z,100353.09
2022-11-25T15:57:19.144Z,100348.75
2022-11-25T15:59:50.495Z,100353.91
2022-11-25T16:02:54.668Z,100343.59
2022-11-25T16:05:33.414Z,100350.50
2022-11-25T16:08:16.750Z,100347.88
2022-11-25T16:10:56.951Z,100346.16
2022-11-25T16:13:39.825Z,100348.72
2022-11-25T16:16:18.883Z,100349.56
2022-11-25T16:19:06.947Z,100338.38
2022-11-25T16:21:45.946Z,100341.78
2022-11-25T16:24:27.974Z,100340.06
2022-11-25T16:26:57.923Z,100351.25
2022-11-25T16:29:32.945Z,100348.66
2022-11-25T16:32:02.485Z,100343.53
2022-11-25T16:34:33.459Z,100347.81
2022-11-25T16:37:02.452Z,100355.56
2022-11-25T16:39:31.179Z,100348.69
2022-11-25T16:42:04.391Z,100349.56
2022-11-25T16:44:35.468Z,100350.44
2022-11-25T16:47:04.888Z,100351.31
2022-11-25T16:49:35.405Z,100357.31
2022-11-25T16:52:04.779Z,100358.19
2022-11-25T16:54:34.125Z,100365.94
2022-11-25T16:57:06.026Z,100367.66
2022-11-25T16:59:38.594Z,100366.78
2022-11-25T17:02:17.456Z,100364.16
2022-11-25T17:04:48.717Z,100367.63
2022-11-25T17:07:36.023Z,100365.88
2022-11-25T17:10:06.224Z,100373.63
2022-11-25T17:12:36.763Z,100375.38
2022-11-25T17:15:10.737Z,100380.53
2022-11-25T17:17:41.280Z,100385.72
2022-11-25T17:20:17.240Z,100384.00
2022-11-25T17:22:47.628Z,100384.88
2022-11-25T17:25:21.599Z,100382.28
2022-11-25T17:27:51.803Z,100390.03
2022-11-25T17:30:23.665Z,100387.47
2022-11-25T17:32:59.911Z,100383.16
2022-11-25T17:35:30.978Z,100384.00
2022-11-25T17:38:01.832Z,100393.50
2022-11-25T17:40:33.058Z,100385.75
2022-11-25T17:43:02.030Z,100384.88
2022-11-25T17:45:33.613Z,100383.16
2022-11-25T17:48:02.229Z,100394.34
2022-11-25T17:50:32.738Z,100406.38
2022-11-25T17:53:04.636Z,100405.53
2022-11-25T17:55:34.843Z,100408.97
2022-11-25T17:58:04.138Z,100402.97
2022-11-25T18:00:35.169Z,100401.22
2022-11-25T18:03:04.831Z,100405.53
2022-11-25T18:05:36.312Z,100410.72
2022-11-25T18:08:05.318Z,100409.84
2022-11-25T18:10:34.384Z,100402.97
2022-11-25T18:13:04.489Z,100406.38
2022-11-25T18:15:35.191Z,100414.13
2022-11-25T18:18:05.465Z,100415.88
2022-11-25T18:20:35.845Z,100406.38
2022-11-25T18:23:04.895Z,100415.00
2022-11-25T18:25:35.391Z,100415.88
2022-11-25T18:28:06.091Z,100403.81
2022-11-25T18:30:36.840Z,100411.56
2022-11-25T18:33:26.377Z,100415.84
2022-11-25T18:36:07.069Z,100410.72
2022-11-25T18:39:06.401Z,100409.84
2022-11-25T18:41:59.985Z,100413.28
2022-11-25T18:44:39.019Z,100416.72
2022-11-25T18:47:48.041Z,100414.13
2022-11-25T18:50:42.513Z,100408.13
2022-11-25T18:53:26.962Z,100409.84
2022-11-25T18:56:17.883Z,100413.28
2022-11-25T18:58:54.745Z,100420.19
2022-11-25T19:01:28.748Z,100421.88
2022-11-25T19:04:04.485Z,100423.63
2022-11-25T19:06:45.214Z,100423.63
2022-11-25T19:09:27.959Z,100427.91
2022-11-25T19:12:05.697Z,100427.91
2022-11-25T19:14:44.231Z,100427.91
2022-11-25T19:17:34.417Z,100419.34
2022-11-25T19:20:31.159Z,100424.50
2022-11-25T19:23:19.418Z,100428.78
2022-11-25T19:26:04.345Z,100427.09
2022-11-25T19:28:36.240Z,100427.94
2022-11-25T19:31:24.952Z,100432.25
2022-11-25T19:34:07.971Z,100432.25
2022-11-25T19:36:47.535Z,100439.97
2022-11-25T19:39:27.000Z,100436.56
2022-11-25T19:42:07.604Z,100446.88
2022-11-25T19:44:53.274Z,100442.59
2022-11-25T19:47:33.070Z,100445.13
2022-11-25T19:50:09.141Z,100445.13
2022-11-25T19:52:47.382Z,100451.19
2022-11-25T19:55:34.002Z,100448.59
2022-11-25T19:58:08.226Z,100452.06
2022-11-25T20:00:39.363Z,100456.34
2022-11-25T20:03:17.846Z,100463.25
2022-11-25T20:05:47.625Z,100470.13
2022-11-25T20:08:20.356Z,100464.97
2022-11-25T20:10:49.891Z,100470.13
2022-11-25T20:13:20.700Z,100466.69
2022-11-25T20:15:50.339Z,100468.44
2022-11-25T20:18:23.921Z,100466.69
2022-11-25T20:21:01.142Z,100459.81
2022-11-25T20:23:38.605Z,100461.50
2022-11-25T20:26:16.460Z,100469.28
2022-11-25T20:28:48.308Z,100472.72
2022-11-25T20:31:18.232Z,100475.28
2022-11-25T20:33:56.632Z,100471.81
2022-11-25T20:36:45.247Z,100471.88
2022-11-25T20:39:24.060Z,100476.16
2022-11-25T20:42:03.678Z,100479.59
2022-11-25T20:44:42.647Z,100477.03
2022-11-25T20:47:20.770Z,100480.47
2022-11-25T20:49:58.177Z,100484.78
2022-11-25T20:52:44.571Z,100487.34
2022-11-25T20:55:25.149Z,100482.19
2022-11-25T20:58:01.313Z,100488.22
2022-11-25T21:00:55.566Z,100485.66
2022-11-25T21:03:30.949Z,100477.91
2022-11-25T21:06:20.394Z,100479.59
2022-11-25T21:09:07.133Z,100476.16
2022-11-25T21:11:48.408Z,100479.63
2022-11-25T21:14:38.843Z,100475.28
2022-11-25T21:17:18.832Z,100479.59
2022-11-25T21:19:54.775Z,100485.63
2022-11-25T21:22:41.469Z,100492.50
2022-11-25T21:25:25.739Z,100493.38
2022-11-25T21:28:09.921Z,100496.81
2022-11-25T21:30:56.705Z,100490.81
2022-11-25T21:33:35.720Z,100492.50
2022-11-25T21:36:20.871Z,100494.22
2022-11-25T21:39:04.305Z,100503.69
2022-11-25T21:41:39.261Z,100495.09
2022-11-25T21:44:10.033Z,100493.38
2022-11-25T21:46:38.757Z,100499.41
2022-11-25T21:49:12.839Z,100499.41
2022-11-25T21:51:43.047Z,100504.56
2022-11-25T21:54:12.352Z,100503.72
2022-11-25T21:56:41.216Z,100510.59
2022-11-25T21:59:19.995Z,100505.44
2022-11-25T22:01:49.011Z,100517.50
2022-11-25T22:04:21.121Z,100514.91
2022-11-25T22:06:51.109Z,100513.22
2022-11-25T22:09:20.403Z,100515.75
2022-11-25T22:11:53.239Z,100519.25
2022-11-25T22:14:29.082Z,100521.81
2022-11-25T22:16:58.952Z,100519.22
2022-11-25T22:19:29.933Z,100527.84
2022-11-25T22:21:59.261Z,100522.66
2022-11-25T22:24:28.376Z,100526.13
2022-11-25T22:26:59.275Z,100532.13
2022-11-25T22:29:34.453Z,100528.72
2022-11-25T22:32:09.662Z,100533.00
2022-11-25T22:34:43.418Z,100538.19
2022-11-25T22:37:18.454Z,100535.56
2022-11-25T22:39:47.848Z,100535.59
2022-11-25T22:42:21.490Z,100539.03
2022-11-25T22:44:51.498Z,100526.09
2022-11-25T22:47:28.370Z,100534.72
2022-11-25T22:49:58.736Z,100532.16
2022-11-25T22:52:31.271Z,100537.31
2022-11-25T22:55:03.851Z,100529.56
2022-11-25T22:57:32.519Z,100542.47
2022-11-25T23:00:01.052Z,100543.34
2022-11-25T23:02:35.222Z,100541.59
2022-11-25T23:05:15.781Z,100548.50
2022-11-25T23:07:45.293Z,100551.94
2022-11-25T23:10:19.781Z,100545.94
2022-11-25T23:12:49.033Z,100551.94
2022-11-25T23:15:19.340Z,100561.44
2022-11-25T23:17:50.929Z,100553.69
2022-11-25T23:20:24.571Z,100560.56
2022-11-25T23:22:54.155Z,100554.53
2022-11-25T23:25:24.579Z,100553.69
2022-11-25T23:27:53.679Z,100550.22
2022-11-25T23:30:24.762Z,100551.97
2022-11-25T23:32:55.143Z,100553.69
2022-11-25T23:35:31.426Z,100558.84
2022-11-25T23:38:00.953Z,100560.56
2022-11-25T23:40:30.195Z,100561.41
2022-11-25T23:42:59.027Z,100557.97
2022-11-25T23:45:28.869Z,100560.56
2022-11-25T23:47:58.545Z,100567.47
2022-11-25T23:50:32.452Z,100566.59
2022-11-25T23:53:05.077Z,100564.03
2022-11-25T23:55:37.321Z,100568.31
2022-11-25T23:58:15.131Z,100567.44
